Portada
METAR-TAF:

METAR-TAF

Aeroports :

Dodge Center Airport (Dodge Center Municipal)

Dodge Center, Minnesota, Estats Units d'Amèrica

latitud: 44-01-05N, longitud: 092-49-53W, altitud: 398 m

Observació

L'informe es va fer fa 34 minuts, a les 19:35 UTC
Vent 17 kt del Nord-Oest amb ràfegues de 26 kt
Temperatura 11°C
Humitat 71%
Pressió 1021 hPa
Visibilitat: 16.1 km
Núvols disperses a una alçada de 2200 ft
Cel ennuvolat a una alçada de 3300 ft
Cel cobert a una alçada de 4000 ft

METAR: KTOB 211935Z AUTO 31017G26KT 10SM SCT022 BKN033 OVC040 11/06 A3016 RMK AO2

Hora: 15:09 (20:09 UTC)


TAF: manca

Observacions i pronòstics meteorològics de més de 4000 aeroports (METAR i TAF).

Les estacions disponibles són els punts grocs i vermells al mapa.

Posi el ratolí al punt desitjat per veure el nom de l'estació.

Feu clic per veure les observacions i els pronòstics meteorològics.

Per canviar el mapa: feu clic els botons verds amb una creu de color negre per apropar; al botó verd amb un guió per allunyar la imatge; o en les fletxes verdes per a mapes adjacents.


METAR-TAF: